Greenview, California
Current Conditions -  °F | °C
As of 6:07 AM on Wednesday 26 Nov 2014 (Local Time) from KSIY Reporting Station
Moderate Fog Moderate Fog  
Wind Chill: 31°   Ceiling: 200
Heat Index: 31°   Visibility: 0.5mi
Dew Point: 30°   Wind: 0mph
Humidity: 96%   Direction: NA
Pressure: 30.38"   Gusts: NA
Location:  41.55°N, 122.9°W
Report Text: KSIY 261407Z AUTO 00000KT 1/2SM FZFG VV002 M01/M01 A3038 RMK AO2 T10061011
Loading
Personal Weather Stations






























Interactive Weather Map New forecast layout! Learn more

10-Day Weather Forecast

Advertisements
Track Severe Weather on mobile